sensor_id;sensor_type;location;lat;lon;timestamp;P1;durP1;ratioP1;P2;durP2;ratioP2
38581;SDS011;24349;53.720;10.014;2023-04-03T00:02:10;5.55;;;1.88;;
38581;SDS011;24349;53.720;10.014;2023-04-03T00:04:36;5.85;;;2.03;;
38581;SDS011;24349;53.720;10.014;2023-04-03T00:07:01;8.00;;;2.28;;
38581;SDS011;24349;53.720;10.014;2023-04-03T00:09:27;6.78;;;2.10;;
38581;SDS011;24349;53.720;10.014;2023-04-03T00:11:53;5.38;;;2.42;;
38581;SDS011;24349;53.720;10.014;2023-04-03T00:14:18;6.97;;;2.17;;
38581;SDS011;24349;53.720;10.014;2023-04-03T00:16:44;9.45;;;2.40;;
38581;SDS011;24349;53.720;10.014;2023-04-03T00:19:10;9.15;;;2.50;;
38581;SDS011;24349;53.720;10.014;2023-04-03T00:21:37;7.13;;;2.00;;
38581;SDS011;24349;53.720;10.014;2023-04-03T00:24:02;9.55;;;2.50;;
38581;SDS011;24349;53.720;10.014;2023-04-03T00:26:28;7.82;;;2.30;;
38581;SDS011;24349;53.720;10.014;2023-04-03T00:28:54;8.13;;;2.40;;
38581;SDS011;24349;53.720;10.014;2023-04-03T00:31:20;6.45;;;2.20;;
38581;SDS011;24349;53.720;10.014;2023-04-03T00:33:45;9.18;;;2.58;;
38581;SDS011;24349;53.720;10.014;2023-04-03T00:36:11;7.03;;;2.20;;
38581;SDS011;24349;53.720;10.014;2023-04-03T00:38:38;8.25;;;2.92;;
38581;SDS011;24349;53.720;10.014;2023-04-03T00:41:03;7.32;;;2.40;;
38581;SDS011;24349;53.720;10.014;2023-04-03T00:43:29;7.57;;;2.53;;
38581;SDS011;24349;53.720;10.014;2023-04-03T00:45:56;8.18;;;2.95;;
38581;SDS011;24349;53.720;10.014;2023-04-03T00:48:25;8.07;;;3.30;;
38581;SDS011;24349;53.720;10.014;2023-04-03T00:50:56;12.75;;;4.25;;
38581;SDS011;24349;53.720;10.014;2023-04-03T00:53:24;11.88;;;4.88;;
38581;SDS011;24349;53.720;10.014;2023-04-03T00:55:54;12.90;;;5.00;;
38581;SDS011;24349;53.720;10.014;2023-04-03T00:58:21;13.85;;;4.80;;
38581;SDS011;24349;53.720;10.014;2023-04-03T01:00:54;13.57;;;5.10;;
38581;SDS011;24349;53.720;10.014;2023-04-03T01:03:22;13.15;;;5.13;;
38581;SDS011;24349;53.720;10.014;2023-04-03T01:05:49;10.77;;;4.93;;
38581;SDS011;24349;53.720;10.014;2023-04-03T01:08:15;17.25;;;7.18;;
38581;SDS011;24349;53.720;10.014;2023-04-03T01:10:41;13.23;;;5.47;;
38581;SDS011;24349;53.720;10.014;2023-04-03T01:13:18;19.08;;;7.43;;
38581;SDS011;24349;53.720;10.014;2023-04-03T01:15:45;17.25;;;7.63;;
38581;SDS011;24349;53.720;10.014;2023-04-03T01:18:11;18.42;;;7.70;;
38581;SDS011;24349;53.720;10.014;2023-04-03T01:20:43;16.38;;;7.25;;
38581;SDS011;24349;53.720;10.014;2023-04-03T01:25:52;12.75;;;5.93;;
38581;SDS011;24349;53.720;10.014;2023-04-03T01:28:21;14.32;;;6.03;;
38581;SDS011;24349;53.720;10.014;2023-04-03T01:33:23;10.55;;;5.03;;
38581;SDS011;24349;53.720;10.014;2023-04-03T01:35:49;11.98;;;4.85;;
38581;SDS011;24349;53.720;10.014;2023-04-03T01:38:15;10.45;;;3.92;;
38581;SDS011;24349;53.720;10.014;2023-04-03T01:40:40;8.00;;;2.83;;
38581;SDS011;24349;53.720;10.014;2023-04-03T01:43:07;6.57;;;3.03;;
38581;SDS011;24349;53.720;10.014;2023-04-03T01:45:32;8.52;;;2.72;;
38581;SDS011;24349;53.720;10.014;2023-04-03T01:47:58;6.53;;;2.72;;
38581;SDS011;24349;53.720;10.014;2023-04-03T01:50:24;6.70;;;2.35;;
38581;SDS011;24349;53.720;10.014;2023-04-03T01:52:49;10.23;;;3.03;;
38581;SDS011;24349;53.720;10.014;2023-04-03T01:55:15;9.65;;;3.22;;
38581;SDS011;24349;53.720;10.014;2023-04-03T01:57:41;8.60;;;2.90;;
38581;SDS011;24349;53.720;10.014;2023-04-03T02:00:07;7.90;;;3.58;;
38581;SDS011;24349;53.720;10.014;2023-04-03T02:02:33;8.93;;;3.75;;
38581;SDS011;24349;53.720;10.014;2023-04-03T02:04:58;10.88;;;3.85;;
38581;SDS011;24349;53.720;10.014;2023-04-03T02:07:24;9.65;;;3.95;;
38581;SDS011;24349;53.720;10.014;2023-04-03T02:09:50;13.70;;;5.20;;
38581;SDS011;24349;53.720;10.014;2023-04-03T02:12:15;11.27;;;4.63;;
38581;SDS011;24349;53.720;10.014;2023-04-03T02:14:41;13.18;;;4.20;;
38581;SDS011;24349;53.720;10.014;2023-04-03T02:17:07;8.15;;;3.20;;
38581;SDS011;24349;53.720;10.014;2023-04-03T02:19:34;9.23;;;3.08;;
38581;SDS011;24349;53.720;10.014;2023-04-03T02:22:01;12.07;;;4.70;;
38581;SDS011;24349;53.720;10.014;2023-04-03T02:24:27;13.45;;;3.58;;
38581;SDS011;24349;53.720;10.014;2023-04-03T02:26:53;12.15;;;3.65;;
38581;SDS011;24349;53.720;10.014;2023-04-03T02:29:19;8.48;;;2.83;;
38581;SDS011;24349;53.720;10.014;2023-04-03T02:31:45;9.23;;;2.90;;
38581;SDS011;24349;53.720;10.014;2023-04-03T02:34:11;7.95;;;3.28;;
38581;SDS011;24349;53.720;10.014;2023-04-03T02:36:36;10.55;;;3.20;;
38581;SDS011;24349;53.720;10.014;2023-04-03T02:39:02;8.63;;;3.20;;
38581;SDS011;24349;53.720;10.014;2023-04-03T02:41:28;8.10;;;3.55;;
38581;SDS011;24349;53.720;10.014;2023-04-03T02:43:59;9.48;;;3.30;;
38581;SDS011;24349;53.720;10.014;2023-04-03T02:46:28;9.80;;;3.60;;
38581;SDS011;24349;53.720;10.014;2023-04-03T02:48:54;9.38;;;3.72;;
38581;SDS011;24349;53.720;10.014;2023-04-03T02:51:20;10.00;;;3.47;;
38581;SDS011;24349;53.720;10.014;2023-04-03T02:53:46;10.77;;;3.88;;
38581;SDS011;24349;53.720;10.014;2023-04-03T02:56:11;8.60;;;3.45;;
38581;SDS011;24349;53.720;10.014;2023-04-03T02:58:37;9.23;;;3.65;;
38581;SDS011;24349;53.720;10.014;2023-04-03T03:01:03;7.78;;;2.95;;
38581;SDS011;24349;53.720;10.014;2023-04-03T03:03:28;7.47;;;3.10;;
38581;SDS011;24349;53.720;10.014;2023-04-03T03:08:46;7.32;;;2.55;;
38581;SDS011;24349;53.720;10.014;2023-04-03T03:11:11;7.20;;;2.90;;
38581;SDS011;24349;53.720;10.014;2023-04-03T03:13:37;7.28;;;2.50;;
38581;SDS011;24349;53.720;10.014;2023-04-03T03:16:03;10.43;;;3.30;;
38581;SDS011;24349;53.720;10.014;2023-04-03T03:18:29;7.63;;;2.95;;
38581;SDS011;24349;53.720;10.014;2023-04-03T03:20:56;6.38;;;2.65;;
38581;SDS011;24349;53.720;10.014;2023-04-03T03:23:23;10.60;;;3.38;;
38581;SDS011;24349;53.720;10.014;2023-04-03T03:25:54;7.35;;;2.88;;
38581;SDS011;24349;53.720;10.014;2023-04-03T03:28:31;9.95;;;3.17;;
38581;SDS011;24349;53.720;10.014;2023-04-03T03:30:57;7.93;;;2.78;;
38581;SDS011;24349;53.720;10.014;2023-04-03T03:33:23;10.07;;;3.22;;
38581;SDS011;24349;53.720;10.014;2023-04-03T03:35:50;8.80;;;2.88;;
38581;SDS011;24349;53.720;10.014;2023-04-03T03:38:16;9.70;;;2.90;;
38581;SDS011;24349;53.720;10.014;2023-04-03T03:40:42;7.03;;;2.38;;
38581;SDS011;24349;53.720;10.014;2023-04-03T03:43:08;5.63;;;2.00;;
38581;SDS011;24349;53.720;10.014;2023-04-03T03:45:33;7.82;;;2.35;;
38581;SDS011;24349;53.720;10.014;2023-04-03T03:47:59;6.85;;;2.10;;
38581;SDS011;24349;53.720;10.014;2023-04-03T03:50:25;7.78;;;2.60;;
38581;SDS011;24349;53.720;10.014;2023-04-03T03:52:50;7.75;;;2.60;;
38581;SDS011;24349;53.720;10.014;2023-04-03T03:55:16;7.03;;;2.60;;
38581;SDS011;24349;53.720;10.014;2023-04-03T03:57:42;6.18;;;2.72;;
38581;SDS011;24349;53.720;10.014;2023-04-03T04:00:08;10.20;;;3.17;;
38581;SDS011;24349;53.720;10.014;2023-04-03T04:02:34;8.68;;;3.42;;
38581;SDS011;24349;53.720;10.014;2023-04-03T04:05:00;7.07;;;2.63;;
38581;SDS011;24349;53.720;10.014;2023-04-03T04:07:26;8.40;;;2.67;;
38581;SDS011;24349;53.720;10.014;2023-04-03T04:09:53;6.97;;;2.60;;
38581;SDS011;24349;53.720;10.014;2023-04-03T04:12:18;6.93;;;2.50;;
38581;SDS011;24349;53.720;10.014;2023-04-03T04:14:45;7.85;;;2.33;;
38581;SDS011;24349;53.720;10.014;2023-04-03T04:17:11;9.55;;;3.30;;
38581;SDS011;24349;53.720;10.014;2023-04-03T04:19:37;7.53;;;3.38;;
38581;SDS011;24349;53.720;10.014;2023-04-03T04:22:06;7.65;;;2.80;;
38581;SDS011;24349;53.720;10.014;2023-04-03T04:24:32;6.20;;;2.10;;
38581;SDS011;24349;53.720;10.014;2023-04-03T04:26:58;8.15;;;3.33;;
38581;SDS011;24349;53.720;10.014;2023-04-03T04:29:23;9.65;;;3.00;;
38581;SDS011;24349;53.720;10.014;2023-04-03T04:31:49;6.80;;;2.95;;
38581;SDS011;24349;53.720;10.014;2023-04-03T04:34:15;6.85;;;2.70;;
38581;SDS011;24349;53.720;10.014;2023-04-03T04:36:40;9.93;;;3.05;;
38581;SDS011;24349;53.720;10.014;2023-04-03T04:39:06;7.97;;;3.45;;
38581;SDS011;24349;53.720;10.014;2023-04-03T04:41:32;9.30;;;3.10;;
38581;SDS011;24349;53.720;10.014;2023-04-03T04:43:59;7.03;;;3.03;;
38581;SDS011;24349;53.720;10.014;2023-04-03T04:46:24;9.40;;;3.55;;
38581;SDS011;24349;53.720;10.014;2023-04-03T04:48:50;9.50;;;2.88;;
38581;SDS011;24349;53.720;10.014;2023-04-03T04:51:15;8.23;;;2.92;;
38581;SDS011;24349;53.720;10.014;2023-04-03T04:53:41;8.57;;;3.10;;
38581;SDS011;24349;53.720;10.014;2023-04-03T04:56:07;9.07;;;3.78;;
38581;SDS011;24349;53.720;10.014;2023-04-03T04:58:33;12.70;;;5.82;;
38581;SDS011;24349;53.720;10.014;2023-04-03T05:01:00;17.27;;;7.75;;
38581;SDS011;24349;53.720;10.014;2023-04-03T05:03:30;15.25;;;5.93;;
38581;SDS011;24349;53.720;10.014;2023-04-03T05:05:56;8.88;;;3.97;;
38581;SDS011;24349;53.720;10.014;2023-04-03T05:08:22;9.68;;;3.50;;
38581;SDS011;24349;53.720;10.014;2023-04-03T05:10:48;7.97;;;3.20;;
38581;SDS011;24349;53.720;10.014;2023-04-03T05:13:13;8.48;;;3.13;;
38581;SDS011;24349;53.720;10.014;2023-04-03T05:15:39;10.15;;;3.90;;
38581;SDS011;24349;53.720;10.014;2023-04-03T05:18:05;11.82;;;4.32;;
38581;SDS011;24349;53.720;10.014;2023-04-03T05:20:31;15.38;;;7.53;;
38581;SDS011;24349;53.720;10.014;2023-04-03T05:22:57;10.02;;;4.18;;
38581;SDS011;24349;53.720;10.014;2023-04-03T05:25:23;9.80;;;4.40;;
38581;SDS011;24349;53.720;10.014;2023-04-03T05:27:49;10.05;;;3.70;;
38581;SDS011;24349;53.720;10.014;2023-04-03T05:30:15;10.80;;;3.95;;
38581;SDS011;24349;53.720;10.014;2023-04-03T05:32:40;12.10;;;3.97;;
38581;SDS011;24349;53.720;10.014;2023-04-03T05:35:07;11.55;;;4.18;;
38581;SDS011;24349;53.720;10.014;2023-04-03T05:37:33;11.85;;;3.95;;
38581;SDS011;24349;53.720;10.014;2023-04-03T05:39:59;11.48;;;4.15;;
38581;SDS011;24349;53.720;10.014;2023-04-03T05:42:25;10.07;;;4.45;;
38581;SDS011;24349;53.720;10.014;2023-04-03T05:44:51;9.35;;;4.38;;
38581;SDS011;24349;53.720;10.014;2023-04-03T05:47:17;11.13;;;4.13;;
38581;SDS011;24349;53.720;10.014;2023-04-03T05:49:43;14.90;;;4.65;;
38581;SDS011;24349;53.720;10.014;2023-04-03T05:54:50;9.70;;;3.72;;
38581;SDS011;24349;53.720;10.014;2023-04-03T05:57:16;11.35;;;4.13;;
38581;SDS011;24349;53.720;10.014;2023-04-03T05:59:45;9.82;;;3.72;;
38581;SDS011;24349;53.720;10.014;2023-04-03T06:02:16;9.65;;;3.70;;
38581;SDS011;24349;53.720;10.014;2023-04-03T06:04:46;11.57;;;4.40;;
38581;SDS011;24349;53.720;10.014;2023-04-03T06:07:16;12.75;;;4.10;;
38581;SDS011;24349;53.720;10.014;2023-04-03T06:09:47;9.13;;;3.47;;
38581;SDS011;24349;53.720;10.014;2023-04-03T06:12:17;9.15;;;3.50;;
38581;SDS011;24349;53.720;10.014;2023-04-03T06:14:43;10.88;;;3.53;;
38581;SDS011;24349;53.720;10.014;2023-04-03T06:17:09;7.95;;;3.20;;
38581;SDS011;24349;53.720;10.014;2023-04-03T06:19:35;7.78;;;2.38;;
38581;SDS011;24349;53.720;10.014;2023-04-03T06:22:01;7.55;;;2.35;;
38581;SDS011;24349;53.720;10.014;2023-04-03T06:24:28;8.38;;;2.40;;
38581;SDS011;24349;53.720;10.014;2023-04-03T06:26:53;6.75;;;2.30;;
38581;SDS011;24349;53.720;10.014;2023-04-03T06:29:20;6.28;;;2.03;;
38581;SDS011;24349;53.720;10.014;2023-04-03T06:31:46;7.00;;;1.92;;
38581;SDS011;24349;53.720;10.014;2023-04-03T06:34:12;6.47;;;1.90;;
38581;SDS011;24349;53.720;10.014;2023-04-03T06:36:38;5.85;;;2.10;;
38581;SDS011;24349;53.720;10.014;2023-04-03T06:39:04;6.72;;;1.88;;
38581;SDS011;24349;53.720;10.014;2023-04-03T06:41:31;6.05;;;2.05;;
38581;SDS011;24349;53.720;10.014;2023-04-03T06:43:57;7.05;;;1.77;;
38581;SDS011;24349;53.720;10.014;2023-04-03T06:46:24;4.93;;;1.80;;
38581;SDS011;24349;53.720;10.014;2023-04-03T06:48:51;8.00;;;2.10;;
38581;SDS011;24349;53.720;10.014;2023-04-03T06:51:21;7.13;;;1.95;;
38581;SDS011;24349;53.720;10.014;2023-04-03T06:53:48;6.38;;;2.10;;
38581;SDS011;24349;53.720;10.014;2023-04-03T06:56:15;5.80;;;1.75;;
38581;SDS011;24349;53.720;10.014;2023-04-03T06:58:41;6.75;;;2.00;;
38581;SDS011;24349;53.720;10.014;2023-04-03T07:01:08;6.03;;;1.85;;
38581;SDS011;24349;53.720;10.014;2023-04-03T07:03:36;7.47;;;2.22;;
38581;SDS011;24349;53.720;10.014;2023-04-03T07:06:02;5.85;;;1.80;;
38581;SDS011;24349;53.720;10.014;2023-04-03T07:08:28;5.18;;;1.88;;
38581;SDS011;24349;53.720;10.014;2023-04-03T07:10:54;7.13;;;1.88;;
38581;SDS011;24349;53.720;10.014;2023-04-03T07:13:20;5.88;;;1.52;;
38581;SDS011;24349;53.720;10.014;2023-04-03T07:15:46;5.65;;;2.00;;
38581;SDS011;24349;53.720;10.014;2023-04-03T07:18:11;5.93;;;1.90;;
38581;SDS011;24349;53.720;10.014;2023-04-03T07:20:38;5.45;;;1.85;;
38581;SDS011;24349;53.720;10.014;2023-04-03T07:23:03;6.90;;;1.70;;
38581;SDS011;24349;53.720;10.014;2023-04-03T07:25:29;5.70;;;1.85;;
38581;SDS011;24349;53.720;10.014;2023-04-03T07:27:56;5.18;;;1.65;;
38581;SDS011;24349;53.720;10.014;2023-04-03T07:30:22;5.22;;;1.80;;
38581;SDS011;24349;53.720;10.014;2023-04-03T07:32:48;6.30;;;2.10;;
38581;SDS011;24349;53.720;10.014;2023-04-03T07:35:14;5.20;;;1.70;;
38581;SDS011;24349;53.720;10.014;2023-04-03T07:37:40;6.55;;;2.17;;
38581;SDS011;24349;53.720;10.014;2023-04-03T07:40:06;5.70;;;1.73;;
38581;SDS011;24349;53.720;10.014;2023-04-03T07:42:33;5.10;;;1.90;;
38581;SDS011;24349;53.720;10.014;2023-04-03T07:45:00;6.65;;;2.50;;
38581;SDS011;24349;53.720;10.014;2023-04-03T07:47:26;6.38;;;1.80;;
38581;SDS011;24349;53.720;10.014;2023-04-03T07:49:51;5.38;;;1.98;;
38581;SDS011;24349;53.720;10.014;2023-04-03T07:52:17;6.78;;;2.25;;
38581;SDS011;24349;53.720;10.014;2023-04-03T07:54:42;5.28;;;1.70;;
38581;SDS011;24349;53.720;10.014;2023-04-03T07:57:08;6.22;;;1.88;;
38581;SDS011;24349;53.720;10.014;2023-04-03T07:59:34;7.38;;;2.13;;
38581;SDS011;24349;53.720;10.014;2023-04-03T08:01:59;7.22;;;1.90;;
38581;SDS011;24349;53.720;10.014;2023-04-03T08:04:25;5.32;;;1.95;;
38581;SDS011;24349;53.720;10.014;2023-04-03T08:06:52;6.28;;;1.80;;
38581;SDS011;24349;53.720;10.014;2023-04-03T08:09:17;6.32;;;2.08;;
38581;SDS011;24349;53.720;10.014;2023-04-03T08:11:44;5.32;;;1.58;;
38581;SDS011;24349;53.720;10.014;2023-04-03T08:14:10;7.93;;;1.80;;
38581;SDS011;24349;53.720;10.014;2023-04-03T08:16:41;5.60;;;1.75;;
38581;SDS011;24349;53.720;10.014;2023-04-03T08:19:07;5.63;;;1.70;;
38581;SDS011;24349;53.720;10.014;2023-04-03T08:21:33;5.75;;;1.85;;
38581;SDS011;24349;53.720;10.014;2023-04-03T08:23:59;5.38;;;1.58;;
38581;SDS011;24349;53.720;10.014;2023-04-03T08:26:24;4.75;;;1.55;;
38581;SDS011;24349;53.720;10.014;2023-04-03T08:28:51;5.00;;;1.67;;
38581;SDS011;24349;53.720;10.014;2023-04-03T08:31:18;5.60;;;1.70;;
38581;SDS011;24349;53.720;10.014;2023-04-03T08:33:44;4.50;;;1.45;;
38581;SDS011;24349;53.720;10.014;2023-04-03T08:38:46;6.13;;;1.67;;
38581;SDS011;24349;53.720;10.014;2023-04-03T08:46:35;5.63;;;1.60;;
38581;SDS011;24349;53.720;10.014;2023-04-03T08:51:51;7.47;;;1.60;;
38581;SDS011;24349;53.720;10.014;2023-04-03T08:54:35;5.18;;;1.67;;
38581;SDS011;24349;53.720;10.014;2023-04-03T08:57:06;5.55;;;1.45;;
38581;SDS011;24349;53.720;10.014;2023-04-03T08:59:33;4.65;;;1.52;;
38581;SDS011;24349;53.720;10.014;2023-04-03T09:02:02;5.38;;;1.50;;
38581;SDS011;24349;53.720;10.014;2023-04-03T09:04:35;4.90;;;1.42;;
38581;SDS011;24349;53.720;10.014;2023-04-03T09:07:04;4.43;;;1.33;;
38581;SDS011;24349;53.720;10.014;2023-04-03T09:09:38;4.32;;;1.38;;
38581;SDS011;24349;53.720;10.014;2023-04-03T09:12:10;4.00;;;1.30;;
38581;SDS011;24349;53.720;10.014;2023-04-03T09:23:13;3.92;;;1.35;;
38581;SDS011;24349;53.720;10.014;2023-04-03T09:25:44;4.35;;;1.10;;
38581;SDS011;24349;53.720;10.014;2023-04-03T09:28:10;3.83;;;1.25;;
38581;SDS011;24349;53.720;10.014;2023-04-03T09:30:37;5.93;;;1.45;;
38581;SDS011;24349;53.720;10.014;2023-04-03T09:33:03;4.78;;;1.40;;
38581;SDS011;24349;53.720;10.014;2023-04-03T09:35:34;5.07;;;1.65;;
38581;SDS011;24349;53.720;10.014;2023-04-03T09:40:37;3.95;;;1.30;;
38581;SDS011;24349;53.720;10.014;2023-04-03T09:43:23;4.90;;;1.40;;
38581;SDS011;24349;53.720;10.014;2023-04-03T09:45:51;3.65;;;1.40;;
38581;SDS011;24349;53.720;10.014;2023-04-03T09:48:18;3.70;;;1.42;;
38581;SDS011;24349;53.720;10.014;2023-04-03T09:53:40;3.83;;;1.48;;
38581;SDS011;24349;53.720;10.014;2023-04-03T09:58:43;5.63;;;1.60;;
38581;SDS011;24349;53.720;10.014;2023-04-03T10:01:27;5.60;;;1.50;;
38581;SDS011;24349;53.720;10.014;2023-04-03T10:06:48;4.15;;;1.50;;
38581;SDS011;24349;53.720;10.014;2023-04-03T10:09:25;4.50;;;1.67;;
38581;SDS011;24349;53.720;10.014;2023-04-03T10:12:06;5.95;;;1.50;;
38581;SDS011;24349;53.720;10.014;2023-04-03T10:14:42;5.30;;;1.83;;
38581;SDS011;24349;53.720;10.014;2023-04-03T10:17:26;6.32;;;1.63;;
38581;SDS011;24349;53.720;10.014;2023-04-03T10:26:24;5.00;;;1.40;;
38581;SDS011;24349;53.720;10.014;2023-04-03T10:32:26;6.50;;;1.40;;
38581;SDS011;24349;53.720;10.014;2023-04-03T10:46:23;5.10;;;1.40;;
38581;SDS011;24349;53.720;10.014;2023-04-03T10:49:05;3.22;;;1.52;;
38581;SDS011;24349;53.720;10.014;2023-04-03T10:51:58;4.75;;;1.30;;
38581;SDS011;24349;53.720;10.014;2023-04-03T10:54:40;5.07;;;1.40;;
38581;SDS011;24349;53.720;10.014;2023-04-03T10:57:11;6.03;;;1.40;;
38581;SDS011;24349;53.720;10.014;2023-04-03T11:02:22;4.30;;;1.25;;
38581;SDS011;24349;53.720;10.014;2023-04-03T11:04:57;3.70;;;1.35;;
38581;SDS011;24349;53.720;10.014;2023-04-03T11:07:38;4.40;;;1.50;;
38581;SDS011;24349;53.720;10.014;2023-04-03T11:12:44;4.30;;;1.42;;
38581;SDS011;24349;53.720;10.014;2023-04-03T11:15:16;4.25;;;1.23;;
38581;SDS011;24349;53.720;10.014;2023-04-03T11:17:45;6.45;;;1.55;;
38581;SDS011;24349;53.720;10.014;2023-04-03T11:20:33;8.40;;;1.60;;
38581;SDS011;24349;53.720;10.014;2023-04-03T11:25:34;3.75;;;1.30;;
38581;SDS011;24349;53.720;10.014;2023-04-03T11:28:03;6.35;;;1.40;;
38581;SDS011;24349;53.720;10.014;2023-04-03T11:38:56;5.18;;;1.60;;
38581;SDS011;24349;53.720;10.014;2023-04-03T11:41:25;5.32;;;1.65;;
38581;SDS011;24349;53.720;10.014;2023-04-03T11:43:58;4.72;;;1.40;;
38581;SDS011;24349;53.720;10.014;2023-04-03T12:05:49;4.70;;;1.30;;
38581;SDS011;24349;53.720;10.014;2023-04-03T12:08:25;4.57;;;1.48;;
38581;SDS011;24349;53.720;10.014;2023-04-03T12:16:05;6.28;;;1.75;;
38581;SDS011;24349;53.720;10.014;2023-04-03T12:22:04;3.90;;;1.17;;
38581;SDS011;24349;53.720;10.014;2023-04-03T12:26:48;3.57;;;1.30;;
38581;SDS011;24349;53.720;10.014;2023-04-03T12:39:44;5.35;;;1.40;;
38581;SDS011;24349;53.720;10.014;2023-04-03T12:45:21;4.85;;;1.55;;
38581;SDS011;24349;53.720;10.014;2023-04-03T12:47:54;4.40;;;1.65;;
38581;SDS011;24349;53.720;10.014;2023-04-03T12:52:54;4.45;;;1.42;;
38581;SDS011;24349;53.720;10.014;2023-04-03T12:55:27;3.97;;;1.35;;
38581;SDS011;24349;53.720;10.014;2023-04-03T12:57:53;3.65;;;1.30;;
38581;SDS011;24349;53.720;10.014;2023-04-03T13:00:20;4.63;;;1.30;;
38581;SDS011;24349;53.720;10.014;2023-04-03T13:02:46;4.10;;;1.58;;
38581;SDS011;24349;53.720;10.014;2023-04-03T13:05:17;4.53;;;1.50;;
38581;SDS011;24349;53.720;10.014;2023-04-03T13:07:44;4.18;;;1.52;;
38581;SDS011;24349;53.720;10.014;2023-04-03T13:10:17;3.65;;;1.30;;
38581;SDS011;24349;53.720;10.014;2023-04-03T13:12:45;6.20;;;1.75;;
38581;SDS011;24349;53.720;10.014;2023-04-03T13:17:45;4.55;;;1.63;;
38581;SDS011;24349;53.720;10.014;2023-04-03T13:20:16;4.18;;;1.30;;
38581;SDS011;24349;53.720;10.014;2023-04-03T13:25:29;3.78;;;1.30;;
38581;SDS011;24349;53.720;10.014;2023-04-03T13:28:01;5.53;;;1.50;;
38581;SDS011;24349;53.720;10.014;2023-04-03T13:30:30;5.32;;;1.50;;
38581;SDS011;24349;53.720;10.014;2023-04-03T13:32:59;6.15;;;1.85;;
38581;SDS011;24349;53.720;10.014;2023-04-03T13:38:06;5.28;;;1.80;;
38581;SDS011;24349;53.720;10.014;2023-04-03T13:40:48;4.05;;;1.65;;
38581;SDS011;24349;53.720;10.014;2023-04-03T13:43:20;5.03;;;1.90;;
38581;SDS011;24349;53.720;10.014;2023-04-03T13:45:55;4.70;;;1.60;;
38581;SDS011;24349;53.720;10.014;2023-04-03T13:48:21;5.20;;;1.70;;
38581;SDS011;24349;53.720;10.014;2023-04-03T13:51:13;4.80;;;1.45;;
38581;SDS011;24349;53.720;10.014;2023-04-03T13:53:42;5.40;;;1.50;;
38581;SDS011;24349;53.720;10.014;2023-04-03T13:56:16;4.90;;;1.58;;
38581;SDS011;24349;53.720;10.014;2023-04-03T14:01:43;4.50;;;1.65;;
38581;SDS011;24349;53.720;10.014;2023-04-03T14:06:50;5.53;;;1.73;;
38581;SDS011;24349;53.720;10.014;2023-04-03T14:09:18;4.82;;;1.50;;
38581;SDS011;24349;53.720;10.014;2023-04-03T14:11:46;4.25;;;1.52;;
38581;SDS011;24349;53.720;10.014;2023-04-03T14:14:14;3.72;;;1.50;;
38581;SDS011;24349;53.720;10.014;2023-04-03T14:16:44;6.05;;;1.80;;
38581;SDS011;24349;53.720;10.014;2023-04-03T14:19:19;4.93;;;1.55;;
38581;SDS011;24349;53.720;10.014;2023-04-03T14:21:48;5.10;;;1.60;;
38581;SDS011;24349;53.720;10.014;2023-04-03T14:24:15;4.78;;;1.63;;
38581;SDS011;24349;53.720;10.014;2023-04-03T14:26:41;4.60;;;1.60;;
38581;SDS011;24349;53.720;10.014;2023-04-03T14:29:09;5.22;;;1.50;;
38581;SDS011;24349;53.720;10.014;2023-04-03T14:31:36;4.75;;;1.60;;
38581;SDS011;24349;53.720;10.014;2023-04-03T14:34:01;4.53;;;1.60;;
38581;SDS011;24349;53.720;10.014;2023-04-03T14:36:28;5.28;;;1.60;;
38581;SDS011;24349;53.720;10.014;2023-04-03T14:38:54;5.90;;;1.83;;
38581;SDS011;24349;53.720;10.014;2023-04-03T14:41:22;5.43;;;1.65;;
38581;SDS011;24349;53.720;10.014;2023-04-03T14:43:49;4.55;;;1.50;;
38581;SDS011;24349;53.720;10.014;2023-04-03T14:46:37;4.38;;;1.45;;
38581;SDS011;24349;53.720;10.014;2023-04-03T14:49:03;4.57;;;1.67;;
38581;SDS011;24349;53.720;10.014;2023-04-03T14:51:37;7.30;;;1.58;;
38581;SDS011;24349;53.720;10.014;2023-04-03T14:54:03;3.75;;;1.35;;
38581;SDS011;24349;53.720;10.014;2023-04-03T14:56:30;5.78;;;1.63;;
38581;SDS011;24349;53.720;10.014;2023-04-03T14:58:57;4.65;;;1.48;;
38581;SDS011;24349;53.720;10.014;2023-04-03T15:01:25;4.45;;;1.70;;
38581;SDS011;24349;53.720;10.014;2023-04-03T15:03:51;5.57;;;1.98;;
38581;SDS011;24349;53.720;10.014;2023-04-03T15:06:17;6.40;;;1.60;;
38581;SDS011;24349;53.720;10.014;2023-04-03T15:08:43;6.50;;;1.77;;
38581;SDS011;24349;53.720;10.014;2023-04-03T15:11:10;5.10;;;1.52;;
38581;SDS011;24349;53.720;10.014;2023-04-03T15:13:38;9.50;;;1.90;;
38581;SDS011;24349;53.720;10.014;2023-04-03T15:16:04;5.50;;;1.63;;
38581;SDS011;24349;53.720;10.014;2023-04-03T15:18:33;5.82;;;1.70;;
38581;SDS011;24349;53.720;10.014;2023-04-03T15:21:02;5.40;;;1.40;;
38581;SDS011;24349;53.720;10.014;2023-04-03T15:23:28;4.40;;;1.50;;
38581;SDS011;24349;53.720;10.014;2023-04-03T15:25:54;5.30;;;1.58;;
38581;SDS011;24349;53.720;10.014;2023-04-03T15:28:31;6.10;;;1.70;;
38581;SDS011;24349;53.720;10.014;2023-04-03T15:31:00;7.28;;;2.00;;
38581;SDS011;24349;53.720;10.014;2023-04-03T15:33:26;4.07;;;1.60;;
38581;SDS011;24349;53.720;10.014;2023-04-03T15:35:52;5.68;;;1.90;;
38581;SDS011;24349;53.720;10.014;2023-04-03T15:38:17;4.20;;;1.40;;
38581;SDS011;24349;53.720;10.014;2023-04-03T15:40:43;4.35;;;1.40;;
38581;SDS011;24349;53.720;10.014;2023-04-03T15:43:09;4.95;;;1.50;;
38581;SDS011;24349;53.720;10.014;2023-04-03T15:45:35;5.93;;;1.55;;
38581;SDS011;24349;53.720;10.014;2023-04-03T15:48:03;4.85;;;1.52;;
38581;SDS011;24349;53.720;10.014;2023-04-03T15:50:30;4.20;;;1.40;;
38581;SDS011;24349;53.720;10.014;2023-04-03T15:52:57;6.35;;;2.00;;
38581;SDS011;24349;53.720;10.014;2023-04-03T15:55:26;5.60;;;1.70;;
38581;SDS011;24349;53.720;10.014;2023-04-03T15:57:53;4.93;;;1.80;;
38581;SDS011;24349;53.720;10.014;2023-04-03T16:00:19;6.85;;;1.60;;
38581;SDS011;24349;53.720;10.014;2023-04-03T16:02:46;6.95;;;1.73;;
38581;SDS011;24349;53.720;10.014;2023-04-03T16:05:13;6.00;;;2.05;;
38581;SDS011;24349;53.720;10.014;2023-04-03T16:07:42;6.63;;;2.78;;
38581;SDS011;24349;53.720;10.014;2023-04-03T16:10:08;5.57;;;1.63;;
38581;SDS011;24349;53.720;10.014;2023-04-03T16:12:35;6.82;;;1.92;;
38581;SDS011;24349;53.720;10.014;2023-04-03T16:15:02;6.28;;;1.90;;
38581;SDS011;24349;53.720;10.014;2023-04-03T16:17:28;5.03;;;1.80;;
38581;SDS011;24349;53.720;10.014;2023-04-03T16:19:55;5.95;;;2.17;;
38581;SDS011;24349;53.720;10.014;2023-04-03T16:22:21;7.40;;;1.95;;
38581;SDS011;24349;53.720;10.014;2023-04-03T16:24:48;7.78;;;2.20;;
38581;SDS011;24349;53.720;10.014;2023-04-03T16:27:14;5.50;;;1.70;;
38581;SDS011;24349;53.720;10.014;2023-04-03T16:29:40;5.25;;;1.65;;
38581;SDS011;24349;53.720;10.014;2023-04-03T16:32:06;6.22;;;1.85;;
38581;SDS011;24349;53.720;10.014;2023-04-03T16:34:32;6.72;;;1.70;;
38581;SDS011;24349;53.720;10.014;2023-04-03T16:36:58;6.30;;;1.90;;
38581;SDS011;24349;53.720;10.014;2023-04-03T16:39:24;5.35;;;1.73;;
38581;SDS011;24349;53.720;10.014;2023-04-03T16:41:50;6.32;;;1.92;;
38581;SDS011;24349;53.720;10.014;2023-04-03T16:44:15;5.28;;;1.80;;
38581;SDS011;24349;53.720;10.014;2023-04-03T16:46:41;5.78;;;2.05;;
38581;SDS011;24349;53.720;10.014;2023-04-03T16:49:07;4.97;;;1.60;;
38581;SDS011;24349;53.720;10.014;2023-04-03T16:51:32;6.93;;;2.20;;
38581;SDS011;24349;53.720;10.014;2023-04-03T16:53:58;5.63;;;1.77;;
38581;SDS011;24349;53.720;10.014;2023-04-03T16:56:24;5.43;;;1.83;;